createdAt,value
2023-05-10T00:01:43.262Z,3.80
2023-05-10T00:04:15.413Z,3.70
2023-05-10T00:06:48.734Z,3.88
2023-05-10T00:09:16.933Z,3.90
2023-05-10T00:11:46.353Z,4.18
2023-05-10T00:14:16.145Z,3.83
2023-05-10T00:16:46.770Z,4.25
2023-05-10T00:19:17.037Z,4.13
2023-05-10T00:21:46.169Z,4.15
2023-05-10T00:24:17.703Z,4.05
2023-05-10T00:26:46.347Z,4.13
2023-05-10T00:29:16.740Z,3.97
2023-05-10T00:31:44.969Z,4.22
2023-05-10T00:34:13.355Z,4.28
2023-05-10T00:36:44.982Z,4.30
2023-05-10T00:39:13.614Z,4.75
2023-05-10T00:41:48.516Z,4.40
2023-05-10T00:44:18.259Z,4.30
2023-05-10T00:46:50.550Z,4.35
2023-05-10T00:49:21.801Z,4.32
2023-05-10T00:51:52.559Z,4.40
2023-05-10T00:54:26.204Z,4.53
2023-05-10T00:56:55.108Z,4.85
2023-05-10T00:59:23.624Z,4.60
2023-05-10T01:01:55.057Z,4.80
2023-05-10T01:04:27.008Z,4.47
2023-05-10T01:06:57.380Z,4.80
2023-05-10T01:09:28.890Z,4.60
2023-05-10T01:12:04.778Z,4.80
2023-05-10T01:14:33.150Z,4.57
2023-05-10T01:17:04.883Z,4.53
2023-05-10T01:19:36.077Z,4.70
2023-05-10T01:22:16.269Z,4.75
2023-05-10T01:25:13.545Z,4.70
2023-05-10T01:27:58.229Z,4.13
2023-05-10T01:30:55.410Z,4.65
2023-05-10T01:33:31.357Z,4.40
2023-05-10T01:36:07.732Z,4.65
2023-05-10T01:38:51.261Z,4.40
2023-05-10T01:41:23.052Z,4.93
2023-05-10T01:43:58.808Z,4.63
2023-05-10T01:46:33.726Z,4.70
2023-05-10T01:49:07.046Z,4.80
2023-05-10T01:51:41.864Z,5.05
2023-05-10T01:54:17.039Z,5.00
2023-05-10T01:56:50.196Z,4.45
2023-05-10T01:59:21.432Z,4.60
2023-05-10T02:01:51.338Z,4.60
2023-05-10T02:04:27.844Z,4.68
2023-05-10T02:06:57.673Z,4.72
2023-05-10T02:09:29.425Z,4.18
2023-05-10T02:12:00.118Z,4.65
2023-05-10T02:14:32.473Z,4.50
2023-05-10T02:17:03.221Z,4.68
2023-05-10T02:19:36.091Z,4.70
2023-05-10T02:22:09.445Z,4.53
2023-05-10T02:24:44.215Z,4.65
2023-05-10T02:27:14.764Z,4.75
2023-05-10T02:29:44.119Z,4.88
2023-05-10T02:32:14.716Z,4.95
2023-05-10T02:34:53.148Z,4.53
2023-05-10T02:37:30.928Z,4.68
2023-05-10T02:40:01.080Z,4.85
2023-05-10T02:42:38.025Z,4.70
2023-05-10T02:45:13.072Z,4.55
2023-05-10T02:47:41.715Z,4.57
2023-05-10T02:50:14.164Z,4.60
2023-05-10T02:52:49.548Z,4.70
2023-05-10T02:55:27.790Z,4.70
2023-05-10T02:58:01.129Z,4.80
2023-05-10T03:00:31.607Z,4.93
2023-05-10T03:03:00.576Z,4.85
2023-05-10T03:05:30.777Z,5.00
2023-05-10T03:08:08.882Z,4.60
2023-05-10T03:10:53.004Z,5.00
2023-05-10T03:13:36.418Z,5.10
2023-05-10T03:16:12.104Z,4.63
2023-05-10T03:18:46.594Z,4.88
2023-05-10T03:21:21.123Z,4.60
2023-05-10T03:23:55.212Z,5.00
2023-05-10T03:26:28.436Z,4.90
2023-05-10T03:29:01.899Z,5.55
2023-05-10T03:31:33.896Z,5.35
2023-05-10T03:34:07.251Z,5.60
2023-05-10T03:36:38.244Z,5.45
2023-05-10T03:39:09.382Z,5.43
2023-05-10T03:41:42.424Z,5.70
2023-05-10T03:44:11.675Z,5.45
2023-05-10T03:46:40.313Z,5.22
2023-05-10T03:49:09.802Z,5.50
2023-05-10T03:51:39.962Z,5.70
2023-05-10T03:54:09.238Z,5.93
2023-05-10T03:56:37.737Z,5.45
2023-05-10T03:59:09.856Z,5.68
2023-05-10T04:01:41.189Z,5.43
2023-05-10T04:04:09.729Z,5.65
2023-05-10T04:06:41.856Z,6.00
2023-05-10T04:09:10.188Z,5.88
2023-05-10T04:11:40.001Z,6.10
2023-05-10T04:14:08.719Z,6.00
2023-05-10T04:16:37.283Z,6.35
2023-05-10T04:19:07.451Z,6.47
2023-05-10T04:21:35.840Z,6.65
2023-05-10T04:24:09.090Z,6.53
2023-05-10T04:26:37.389Z,6.55
2023-05-10T04:29:05.746Z,6.30
2023-05-10T04:31:34.391Z,6.60
2023-05-10T04:34:03.321Z,6.40
2023-05-10T04:36:34.660Z,6.63
2023-05-10T04:39:03.944Z,6.35
2023-05-10T04:41:36.773Z,6.38
2023-05-10T04:44:08.452Z,6.78
2023-05-10T04:46:43.853Z,6.78
2023-05-10T04:49:16.286Z,6.13
2023-05-10T04:51:51.235Z,6.60
2023-05-10T04:54:20.098Z,6.38
2023-05-10T04:56:49.684Z,6.35
2023-05-10T04:59:18.733Z,6.45
2023-05-10T05:01:49.700Z,6.25
2023-05-10T05:04:35.965Z,6.63
2023-05-10T05:07:05.316Z,6.55
2023-05-10T05:09:35.227Z,6.20
2023-05-10T05:12:08.674Z,6.82
2023-05-10T05:14:44.727Z,6.72
2023-05-10T05:17:15.770Z,6.47
2023-05-10T05:19:46.596Z,7.10
2023-05-10T05:22:15.916Z,6.38
2023-05-10T05:25:00.347Z,6.30
2023-05-10T05:27:32.835Z,6.28
2023-05-10T05:30:04.745Z,6.35
2023-05-10T05:32:34.197Z,6.38
2023-05-10T05:35:07.244Z,6.25
2023-05-10T05:37:36.329Z,6.60
2023-05-10T05:40:08.259Z,6.50
2023-05-10T05:42:40.368Z,6.32
2023-05-10T05:45:15.228Z,6.40
2023-05-10T05:47:56.033Z,6.57
2023-05-10T05:50:27.256Z,6.70
2023-05-10T05:52:57.299Z,6.82
2023-05-10T05:55:26.944Z,6.40
2023-05-10T05:58:00.373Z,6.32
2023-05-10T06:00:28.830Z,6.63
2023-05-10T06:02:57.977Z,6.45
2023-05-10T06:05:28.334Z,6.40
2023-05-10T06:07:57.766Z,6.65
2023-05-10T06:10:27.648Z,6.80
2023-05-10T06:13:03.745Z,6.40
2023-05-10T06:15:35.722Z,6.03
2023-05-10T06:18:06.159Z,6.15
2023-05-10T06:20:34.934Z,6.60
2023-05-10T06:23:03.112Z,6.10
2023-05-10T06:25:31.603Z,5.90
2023-05-10T06:28:07.318Z,6.10
2023-05-10T06:30:36.023Z,5.90
2023-05-10T06:33:05.278Z,6.10
2023-05-10T06:35:35.720Z,6.22
2023-05-10T06:38:06.611Z,6.20
2023-05-10T06:40:36.426Z,6.35
2023-05-10T06:43:06.847Z,6.10
2023-05-10T06:45:37.076Z,5.85
2023-05-10T06:48:08.112Z,6.10
2023-05-10T06:50:36.827Z,6.40
2023-05-10T06:53:25.685Z,6.25
2023-05-10T06:56:00.123Z,6.00
2023-05-10T06:58:31.378Z,5.57
2023-05-10T07:01:05.266Z,5.75
2023-05-10T07:03:34.355Z,5.70
2023-05-10T07:06:06.332Z,5.70
2023-05-10T07:08:34.887Z,5.80
2023-05-10T07:11:05.794Z,5.63
2023-05-10T07:13:39.581Z,5.60
2023-05-10T07:16:12.297Z,5.90
2023-05-10T07:18:41.363Z,6.20
2023-05-10T07:21:10.108Z,5.80
2023-05-10T07:23:38.655Z,5.82
2023-05-10T07:26:13.026Z,5.72
2023-05-10T07:28:45.455Z,6.35
2023-05-10T07:31:14.263Z,6.10
2023-05-10T07:33:48.655Z,5.78
2023-05-10T07:36:19.046Z,5.70
2023-05-10T07:38:48.972Z,5.93
2023-05-10T07:41:17.237Z,5.57
2023-05-10T07:43:47.667Z,5.38
2023-05-10T07:46:16.239Z,5.18
2023-05-10T07:48:45.972Z,5.07
2023-05-10T07:51:15.806Z,5.20
2023-05-10T07:53:45.116Z,5.30
2023-05-10T07:56:28.442Z,5.38
2023-05-10T07:59:01.510Z,5.18
2023-05-10T08:01:38.642Z,5.38
2023-05-10T08:04:08.510Z,5.05
2023-05-10T08:06:37.105Z,5.18
2023-05-10T08:09:07.011Z,5.30
2023-05-10T08:11:35.457Z,5.32
2023-05-10T08:14:11.817Z,5.10
2023-05-10T08:16:48.041Z,4.90
2023-05-10T08:19:20.177Z,4.80
2023-05-10T08:21:49.029Z,5.00
2023-05-10T08:24:21.011Z,4.95
2023-05-10T08:26:50.248Z,4.80
2023-05-10T08:29:21.998Z,4.53
2023-05-10T08:34:19.712Z,4.68
2023-05-10T08:36:47.829Z,4.82
2023-05-10T08:39:23.376Z,4.78
2023-05-10T08:42:04.438Z,4.60
2023-05-10T08:44:38.339Z,4.70
2023-05-10T08:47:10.760Z,4.75
2023-05-10T08:49:40.114Z,4.72
2023-05-10T08:52:09.641Z,4.47
2023-05-10T08:54:39.024Z,4.63
2023-05-10T08:57:08.333Z,4.55
2023-05-10T08:59:40.553Z,4.30
2023-05-10T09:02:17.226Z,4.32
2023-05-10T09:04:47.994Z,4.47
2023-05-10T09:07:18.037Z,4.47
2023-05-10T09:09:47.523Z,4.70
2023-05-10T09:12:19.202Z,4.40
2023-05-10T09:14:49.313Z,4.32
2023-05-10T09:17:18.540Z,4.47
2023-05-10T09:19:50.336Z,4.25
2023-05-10T09:22:23.233Z,4.22
2023-05-10T09:25:05.977Z,4.20
2023-05-10T09:27:34.581Z,4.03
2023-05-10T09:30:05.328Z,4.00
2023-05-10T09:32:40.927Z,3.95
2023-05-10T09:35:15.154Z,4.45
2023-05-10T09:37:45.876Z,4.40
2023-05-10T09:40:19.274Z,4.07
2023-05-10T09:42:54.888Z,4.18
2023-05-10T09:45:27.128Z,4.05
2023-05-10T09:47:56.126Z,3.78
2023-05-10T09:50:29.716Z,3.88
2023-05-10T09:53:04.458Z,3.72
2023-05-10T09:55:42.220Z,3.88
2023-05-10T09:58:12.561Z,3.90
2023-05-10T10:00:44.209Z,3.60
2023-05-10T10:03:17.498Z,3.70
2023-05-10T10:05:53.727Z,3.58
2023-05-10T10:08:26.405Z,3.58
2023-05-10T10:11:02.403Z,3.40
2023-05-10T10:13:33.440Z,3.55
2023-05-10T10:16:05.655Z,3.10
2023-05-10T10:18:41.220Z,3.38
2023-05-10T10:21:13.383Z,3.33
2023-05-10T10:23:43.042Z,3.42
2023-05-10T10:26:23.068Z,3.40
2023-05-10T10:29:02.571Z,3.50
2023-05-10T10:31:41.495Z,3.30
2023-05-10T10:34:14.373Z,3.08
2023-05-10T10:36:48.084Z,3.10
2023-05-10T10:39:17.651Z,2.88
2023-05-10T10:44:43.117Z,3.20
2023-05-10T10:47:29.219Z,3.10
2023-05-10T10:50:11.549Z,2.83
2023-05-10T10:52:41.610Z,2.83
2023-05-10T10:55:11.891Z,2.90
2023-05-10T10:57:48.953Z,3.70
2023-05-10T11:00:25.871Z,3.13
2023-05-10T11:03:01.012Z,3.00
2023-05-10T11:05:47.654Z,2.78
2023-05-10T11:08:18.590Z,3.00
2023-05-10T11:11:11.059Z,2.90
2023-05-10T11:13:44.206Z,2.90
2023-05-10T11:16:20.436Z,2.85
2023-05-10T11:19:07.921Z,3.30
2023-05-10T11:21:51.801Z,3.03
2023-05-10T11:24:26.650Z,2.80
2023-05-10T11:26:56.856Z,2.97
2023-05-10T11:29:31.235Z,2.88
2023-05-10T11:32:09.425Z,3.40
2023-05-10T11:34:44.202Z,2.78
2023-05-10T11:37:12.732Z,3.67
2023-05-10T11:39:41.753Z,2.78
2023-05-10T11:42:12.555Z,2.67
2023-05-10T11:44:43.355Z,2.80
2023-05-10T11:47:17.253Z,2.57
2023-05-10T11:49:47.902Z,2.63
2023-05-10T11:52:16.948Z,2.70
2023-05-10T11:54:54.272Z,2.75
2023-05-10T11:57:23.329Z,2.60
2023-05-10T11:59:57.311Z,2.53
2023-05-10T12:02:26.061Z,2.67
2023-05-10T12:05:03.303Z,2.55
2023-05-10T12:07:38.886Z,2.65
2023-05-10T12:10:19.267Z,2.63
2023-05-10T12:12:50.431Z,2.65
2023-05-10T12:15:21.655Z,2.90
2023-05-10T12:17:51.964Z,2.80
2023-05-10T12:20:33.042Z,2.67
2023-05-10T12:23:03.117Z,2.60
2023-05-10T12:25:38.382Z,2.63
2023-05-10T12:28:09.607Z,2.60
2023-05-10T12:30:41.681Z,2.47
2023-05-10T12:33:13.378Z,2.60
2023-05-10T12:35:52.953Z,2.50
2023-05-10T12:38:30.380Z,2.50
2023-05-10T12:41:00.579Z,2.60
2023-05-10T12:43:32.463Z,2.70
2023-05-10T12:48:35.176Z,2.78
2023-05-10T12:51:10.837Z,2.60
2023-05-10T12:53:44.575Z,2.67
2023-05-10T12:56:14.058Z,2.80
2023-05-10T12:58:43.715Z,2.40
2023-05-10T13:01:15.170Z,2.50
2023-05-10T13:06:16.234Z,2.30
2023-05-10T13:08:44.655Z,2.40
2023-05-10T13:11:17.927Z,2.40
2023-05-10T13:13:50.098Z,2.50
2023-05-10T13:16:21.449Z,2.33
2023-05-10T13:18:49.931Z,2.80
2023-05-10T13:21:23.783Z,2.40
2023-05-10T13:23:52.648Z,2.55
2023-05-10T13:26:22.723Z,2.40
2023-05-10T13:28:52.873Z,2.22
2023-05-10T13:31:23.891Z,2.40
2023-05-10T13:33:55.342Z,2.40
2023-05-10T13:36:25.258Z,2.30
2023-05-10T13:38:57.034Z,2.20
2023-05-10T13:41:28.827Z,2.22
2023-05-10T13:44:03.608Z,2.30
2023-05-10T13:46:33.406Z,2.30
2023-05-10T13:49:01.944Z,2.20
2023-05-10T13:51:32.768Z,2.30
2023-05-10T13:54:01.768Z,2.20
2023-05-10T13:56:30.245Z,2.35
2023-05-10T13:58:59.763Z,2.30
2023-05-10T14:01:28.378Z,2.30
2023-05-10T14:04:00.806Z,2.20
2023-05-10T14:06:32.182Z,2.47
2023-05-10T14:09:01.187Z,2.13
2023-05-10T14:11:29.848Z,2.08
2023-05-10T14:13:58.688Z,2.20
2023-05-10T14:16:28.758Z,2.50
2023-05-10T14:18:57.556Z,2.42
2023-05-10T14:21:25.971Z,2.20
2023-05-10T14:23:57.209Z,2.40
2023-05-10T14:26:34.158Z,2.10
2023-05-10T14:29:02.610Z,2.13
2023-05-10T14:31:31.462Z,2.20
2023-05-10T14:34:02.973Z,2.35
2023-05-10T14:36:34.075Z,2.10
2023-05-10T14:39:04.265Z,2.13
2023-05-10T14:41:34.971Z,2.00
2023-05-10T14:44:07.908Z,2.22
2023-05-10T14:46:38.051Z,2.10
2023-05-10T14:49:07.484Z,2.00
2023-05-10T14:51:38.187Z,2.15
2023-05-10T14:54:08.296Z,2.00
2023-05-10T14:56:46.767Z,2.17
2023-05-10T14:59:18.733Z,1.95
2023-05-10T15:01:48.261Z,2.00
2023-05-10T15:04:17.503Z,2.13
2023-05-10T15:06:51.166Z,2.20
2023-05-10T15:09:21.177Z,2.10
2023-05-10T15:11:51.318Z,2.08
2023-05-10T15:14:20.236Z,2.00
2023-05-10T15:16:49.434Z,1.90
2023-05-10T15:19:17.951Z,1.95
2023-05-10T15:21:46.615Z,2.20
2023-05-10T15:24:21.305Z,2.20
2023-05-10T15:26:50.777Z,2.30
2023-05-10T15:29:21.716Z,2.60
2023-05-10T15:31:56.869Z,2.20
2023-05-10T15:34:29.130Z,2.35
2023-05-10T15:37:00.284Z,2.50
2023-05-10T15:39:37.756Z,2.30
2023-05-10T15:42:09.596Z,2.42
2023-05-10T15:47:09.007Z,2.33
2023-05-10T15:49:37.654Z,2.42
2023-05-10T15:52:07.299Z,2.10
2023-05-10T15:54:39.926Z,2.33
2023-05-10T15:57:12.410Z,2.22
2023-05-10T15:59:41.432Z,2.20
2023-05-10T16:02:11.036Z,2.40
2023-05-10T16:04:40.271Z,2.42
2023-05-10T16:07:11.186Z,2.58
2023-05-10T16:09:43.553Z,2.47
2023-05-10T16:12:12.226Z,2.45
2023-05-10T16:14:43.504Z,2.65
2023-05-10T16:18:24.557Z,2.90
2023-05-10T16:20:51.767Z,2.40
2023-05-10T16:23:24.729Z,2.70
2023-05-10T16:25:54.962Z,2.58
2023-05-10T16:28:23.670Z,2.70
2023-05-10T16:30:57.548Z,2.55
2023-05-10T16:33:26.069Z,2.70
2023-05-10T16:35:55.745Z,2.78
2023-05-10T16:38:24.791Z,2.58
2023-05-10T16:40:55.457Z,2.70
2023-05-10T16:43:29.847Z,2.80
2023-05-10T16:46:04.022Z,2.70
2023-05-10T16:48:33.155Z,2.97
2023-05-10T16:51:02.495Z,2.90
2023-05-10T16:53:31.158Z,2.88
2023-05-10T16:56:01.326Z,2.80
2023-05-10T16:58:30.620Z,2.70
2023-05-10T17:01:02.936Z,2.63
2023-05-10T17:03:34.235Z,2.90
2023-05-10T17:06:05.461Z,2.60
2023-05-10T17:08:34.205Z,3.10
2023-05-10T17:11:06.441Z,2.88
2023-05-10T17:13:44.140Z,2.60
2023-05-10T17:16:14.929Z,2.90
2023-05-10T17:18:46.646Z,2.78
2023-05-10T17:21:16.901Z,2.80
2023-05-10T17:23:48.591Z,2.70
2023-05-10T17:26:21.398Z,2.80
2023-05-10T17:28:51.212Z,2.90
2023-05-10T17:31:19.889Z,2.90
2023-05-10T17:33:52.248Z,2.72
2023-05-10T17:38:49.634Z,2.90
2023-05-10T17:41:19.878Z,2.88
2023-05-10T17:43:49.588Z,3.10
2023-05-10T17:46:20.190Z,2.92
2023-05-10T17:48:51.076Z,3.00
2023-05-10T17:51:20.397Z,2.80
2023-05-10T17:53:51.970Z,2.85
2023-05-10T17:56:23.251Z,2.90
2023-05-10T17:58:52.921Z,2.92
2023-05-10T18:01:21.982Z,2.78
2023-05-10T18:03:51.852Z,2.78
2023-05-10T18:06:20.622Z,2.95
2023-05-10T18:08:52.161Z,2.63
2023-05-10T18:11:33.495Z,2.58
2023-05-10T18:14:01.851Z,2.60
2023-05-10T18:16:30.739Z,2.40
2023-05-10T18:18:59.557Z,2.63
2023-05-10T18:21:28.365Z,2.72
2023-05-10T18:23:57.361Z,2.47
2023-05-10T18:26:37.140Z,2.70
2023-05-10T18:29:07.453Z,2.88
2023-05-10T18:32:13.892Z,2.42
2023-05-10T18:34:42.951Z,2.72
2023-05-10T18:37:12.177Z,2.75
2023-05-10T18:39:41.530Z,2.72
2023-05-10T18:42:15.060Z,5.07
2023-05-10T18:44:44.045Z,9.32
2023-05-10T18:47:17.076Z,10.05
2023-05-10T18:49:46.615Z,9.30
2023-05-10T18:52:16.186Z,6.45
2023-05-10T18:54:46.004Z,5.93
2023-05-10T18:57:17.516Z,4.07
2023-05-10T18:59:52.291Z,3.70
2023-05-10T19:02:21.109Z,3.50
2023-05-10T19:04:50.941Z,3.22
2023-05-10T19:07:22.582Z,3.30
2023-05-10T19:09:53.176Z,3.20
2023-05-10T19:12:24.363Z,3.13
2023-05-10T19:14:55.302Z,3.30
2023-05-10T19:17:24.886Z,3.17
2023-05-10T19:19:56.655Z,3.40
2023-05-10T19:22:43.563Z,3.40
2023-05-10T19:27:49.259Z,3.33
2023-05-10T19:30:18.693Z,3.50
2023-05-10T19:32:48.956Z,3.40
2023-05-10T19:35:19.736Z,3.90
2023-05-10T19:37:50.911Z,3.90
2023-05-10T19:40:19.915Z,3.55
2023-05-10T19:42:52.923Z,3.90
2023-05-10T19:45:24.049Z,3.50
2023-05-10T19:47:57.561Z,3.70
2023-05-10T19:50:26.793Z,3.80
2023-05-10T19:52:55.511Z,3.70
2023-05-10T19:55:29.193Z,3.70
2023-05-10T19:58:00.834Z,3.92
2023-05-10T20:00:32.389Z,3.80
2023-05-10T20:03:01.579Z,3.78
2023-05-10T20:05:31.146Z,3.42
2023-05-10T20:08:00.970Z,3.47
2023-05-10T20:10:31.183Z,3.30
2023-05-10T20:13:04.170Z,3.30
2023-05-10T20:15:34.160Z,3.45
2023-05-10T20:18:03.764Z,3.30
2023-05-10T20:20:32.159Z,3.28
2023-05-10T20:23:03.493Z,3.13
2023-05-10T20:25:32.291Z,3.08
2023-05-10T20:28:09.561Z,3.35
2023-05-10T20:30:44.187Z,3.20
2023-05-10T20:33:19.759Z,3.30
2023-05-10T20:35:54.593Z,3.15
2023-05-10T20:38:24.917Z,4.10
2023-05-10T20:40:59.612Z,3.00
2023-05-10T20:43:34.153Z,3.20
2023-05-10T20:46:06.608Z,3.22
2023-05-10T20:48:37.331Z,3.13
2023-05-10T20:51:09.448Z,3.20
2023-05-10T20:53:38.736Z,3.15
2023-05-10T20:56:08.977Z,3.40
2023-05-10T20:58:40.609Z,3.30
2023-05-10T21:01:10.709Z,3.20
2023-05-10T21:03:40.970Z,3.20
2023-05-10T21:06:09.391Z,3.05
2023-05-10T21:08:38.064Z,2.97
2023-05-10T21:11:08.075Z,3.10
2023-05-10T21:13:36.418Z,3.30
2023-05-10T21:16:06.710Z,3.13
2023-05-10T21:18:34.983Z,3.25
2023-05-10T21:21:06.214Z,3.42
2023-05-10T21:23:37.135Z,3.35
2023-05-10T21:26:07.611Z,3.30
2023-05-10T21:28:38.391Z,3.40
2023-05-10T21:31:11.035Z,3.28
2023-05-10T21:33:41.954Z,3.38
2023-05-10T21:36:19.056Z,3.87
2023-05-10T21:38:51.147Z,3.50
2023-05-10T21:41:21.900Z,3.70
2023-05-10T21:43:51.391Z,3.70
2023-05-10T21:46:21.885Z,3.70
2023-05-10T21:48:50.772Z,3.85
2023-05-10T21:51:19.308Z,3.70
2023-05-10T21:53:51.671Z,3.90
2023-05-10T21:56:23.265Z,3.42
2023-05-10T21:58:54.358Z,3.58
2023-05-10T22:01:27.849Z,3.23
2023-05-10T22:03:58.767Z,3.38
2023-05-10T22:06:27.103Z,3.67
2023-05-10T22:08:59.113Z,3.25
2023-05-10T22:11:30.477Z,3.67
2023-05-10T22:14:00.738Z,3.60
2023-05-10T22:16:31.084Z,3.50
2023-05-10T22:19:06.915Z,3.42
2023-05-10T22:21:37.081Z,3.30
2023-05-10T22:24:06.484Z,3.40
2023-05-10T22:26:40.507Z,3.38
2023-05-10T22:29:09.775Z,3.55
2023-05-10T22:31:43.354Z,3.40
2023-05-10T22:34:13.818Z,3.50
2023-05-10T22:36:42.622Z,3.67
2023-05-10T22:39:12.963Z,3.38
2023-05-10T22:41:41.467Z,3.30
2023-05-10T22:44:10.005Z,3.55
2023-05-10T22:46:43.292Z,3.30
2023-05-10T22:49:14.365Z,3.20
2023-05-10T22:51:46.661Z,3.45
2023-05-10T22:54:15.218Z,3.28
2023-05-10T22:56:44.899Z,3.40
2023-05-10T22:59:16.217Z,3.40
2023-05-10T23:01:47.543Z,3.47
2023-05-10T23:04:17.409Z,3.60
2023-05-10T23:06:46.782Z,3.40
2023-05-10T23:09:16.136Z,3.42
2023-05-10T23:11:44.627Z,3.45
2023-05-10T23:14:14.376Z,3.40
2023-05-10T23:16:43.162Z,3.17
2023-05-10T23:19:19.833Z,3.45
2023-05-10T23:21:49.497Z,3.58
2023-05-10T23:24:18.588Z,3.42
2023-05-10T23:26:47.424Z,3.50
2023-05-10T23:29:15.741Z,3.42
2023-05-10T23:31:46.278Z,3.40
2023-05-10T23:34:19.431Z,3.60
2023-05-10T23:36:50.737Z,4.07
2023-05-10T23:39:20.345Z,3.40
2023-05-10T23:41:50.016Z,3.35
2023-05-10T23:44:19.512Z,3.17
2023-05-10T23:46:49.093Z,3.50
2023-05-10T23:49:21.000Z,3.60
2023-05-10T23:51:52.501Z,3.78
2023-05-10T23:54:23.579Z,3.50
2023-05-10T23:56:52.155Z,3.70
2023-05-10T23:59:20.537Z,3.80
